Time;durP1;ratioP1;P1;durP2;ratioP2;P2;SDS_P1;SDS_P2;PMS_P1;PMS_P2;Temp;Humidity;BMP_temperature;BMP_pressure;BME280_temperature;BME280_humidity;BME280_pressure;Samples;Min_cycle;Max_cycle;Signal;HPM_P1;HPM_P2
2022/03/11 00:01:08;;;;;;;12.57;6.15;;;;;;;1.47;45.37;96818.44;5049550;28;20464;-54
2022/03/11 00:03:36;;;;;;;8.38;6.75;;;;;;;1.40;45.18;96817.91;5050114;28;20443;-54
2022/03/11 00:06:05;;;;;;;8.35;5.40;;;;;;;1.30;45.45;96821.06;5050370;28;20448;-58
2022/03/11 00:08:33;;;;;;;10.80;6.55;;;;;;;1.41;44.82;96821.34;5049861;28;20072;-58
2022/03/11 00:11:05;;;;;;;7.95;6.30;;;;;;;1.33;44.69;96805.31;5048760;28;20096;-53
2022/03/11 00:13:34;;;;;;;7.93;6.03;;;;;;;1.29;44.56;96811.59;5058562;28;20064;-52
2022/03/11 00:16:02;;;;;;;6.28;5.63;;;;;;;1.34;44.71;96809.59;5047765;28;20324;-56
2022/03/11 00:18:31;;;;;;;6.65;5.40;;;;;;;1.33;44.58;96811.34;5049364;28;20080;-54
2022/03/11 00:20:59;;;;;;;10.75;6.05;;;;;;;1.29;44.41;96820.22;5050009;28;20363;-51
2022/03/11 00:23:28;;;;;;;8.48;6.20;;;;;;;1.24;44.26;96814.44;5049152;28;20064;-54
2022/03/11 00:25:56;;;;;;;7.32;5.43;;;;;;;1.14;44.33;96821.03;5044775;28;20072;-54
2022/03/11 00:28:26;;;;;;;7.65;5.70;;;;;;;1.18;44.26;96818.19;5048765;28;20752;-56
2022/03/11 00:30:54;;;;;;;9.93;6.55;;;;;;;1.25;44.46;96823.06;5048833;28;20068;-54
2022/03/11 00:33:22;;;;;;;9.05;5.78;;;;;;;1.07;44.88;96820.50;5048075;28;20077;-51
2022/03/11 00:35:50;;;;;;;6.80;5.50;;;;;;;1.07;44.61;96814.47;5051487;28;20717;-53
2022/03/11 00:38:19;;;;;;;9.43;6.10;;;;;;;1.03;44.53;96808.56;5048948;28;20087;-53
2022/03/11 00:40:47;;;;;;;8.68;5.90;;;;;;;1.06;44.49;96813.59;5047578;28;20573;-55
2022/03/11 00:43:16;;;;;;;6.75;6.05;;;;;;;0.83;45.01;96817.38;5048698;28;20099;-56
2022/03/11 00:45:46;;;;;;;6.93;6.18;;;;;;;0.88;45.09;96815.38;5048978;28;20060;-52
2022/03/11 00:48:14;;;;;;;8.88;6.15;;;;;;;0.91;45.10;96806.59;5051124;28;20060;-54
2022/03/11 00:50:43;;;;;;;9.32;6.22;;;;;;;1.00;44.92;96821.72;5048731;28;20068;-52
2022/03/11 00:53:11;;;;;;;5.60;5.03;;;;;;;0.80;45.49;96819.28;5047026;28;20052;-56
2022/03/11 00:55:39;;;;;;;7.43;5.57;;;;;;;0.78;45.77;96819.34;5045950;28;20068;-53
2022/03/11 00:58:08;;;;;;;8.18;6.30;;;;;;;0.85;45.72;96822.47;5043151;28;20068;-54
2022/03/11 01:00:36;;;;;;;5.93;5.32;;;;;;;0.76;46.10;96817.72;5030198;28;20072;-56
2022/03/11 01:03:06;;;;;;;11.68;6.68;;;;;;;0.65;46.61;96808.75;5049739;28;20068;-59
2022/03/11 01:05:34;;;;;;;6.88;5.78;;;;;;;0.67;46.86;96819.88;5049114;28;20064;-53
2022/03/11 01:08:03;;;;;;;8.35;6.28;;;;;;;0.65;47.12;96806.16;5050234;28;20072;-56
2022/03/11 01:10:32;;;;;;;9.85;7.03;;;;;;;0.55;47.39;96804.06;5047004;28;20072;-54
2022/03/11 01:13:00;;;;;;;9.00;7.30;;;;;;;0.55;47.61;96810.09;5047998;28;20060;-58
2022/03/11 01:15:28;;;;;;;6.47;5.70;;;;;;;0.56;47.78;96804.00;5047938;28;20057;-53
2022/03/11 01:17:57;;;;;;;5.85;5.20;;;;;;;0.47;48.19;96809.63;5048961;28;20080;-51
2022/03/11 01:20:27;;;;;;;7.22;5.35;;;;;;;0.46;48.42;96792.38;5048425;28;20071;-52
2022/03/11 01:22:55;;;;;;;9.10;6.57;;;;;;;0.47;49.00;96801.84;5046971;28;20075;-52
2022/03/11 01:25:23;;;;;;;12.05;5.88;;;;;;;0.47;48.89;96796.66;5048090;28;20475;-57
2022/03/11 01:27:52;;;;;;;8.98;7.18;;;;;;;0.36;49.60;96801.53;5047831;28;20067;-57
2022/03/11 01:30:21;;;;;;;8.13;6.25;;;;;;;0.40;49.56;96787.50;5047999;28;20068;-56
2022/03/11 01:32:49;;;;;;;11.60;8.32;;;;;;;0.28;50.41;96777.72;5047133;28;21505;-52
2022/03/11 01:35:17;;;;;;;9.93;6.95;;;;;;;0.31;50.29;96790.50;5044963;28;20060;-50
2022/03/11 01:37:47;;;;;;;9.25;7.20;;;;;;;0.37;50.79;96778.09;5051639;28;20420;-52
2022/03/11 01:40:15;;;;;;;11.52;6.55;;;;;;;0.26;51.46;96779.53;5048161;28;20094;-57
2022/03/11 01:42:44;;;;;;;11.35;7.63;;;;;;;0.41;51.41;96784.84;5047814;28;20103;-51
2022/03/11 01:45:12;;;;;;;9.38;6.15;;;;;;;0.21;51.99;96777.19;5045921;28;20095;-53
2022/03/11 01:47:40;;;;;;;10.55;6.85;;;;;;;0.20;52.09;96791.88;5048217;28;20056;-55
2022/03/11 01:50:09;;;;;;;10.18;6.97;;;;;;;0.29;52.61;96776.81;5050125;28;20440;-55
2022/03/11 01:52:38;;;;;;;11.07;7.78;;;;;;;0.31;52.63;96778.41;5049407;28;20431;-51
2022/03/11 01:55:08;;;;;;;11.93;6.82;;;;;;;0.21;53.17;96782.34;5047126;28;20099;-52
2022/03/11 01:57:37;;;;;;;10.27;7.82;;;;;;;0.07;54.33;96777.84;5047011;28;20088;-51
2022/03/11 02:00:06;;;;;;;12.80;7.68;;;;;;;-0.01;54.69;96779.94;5048273;28;20523;-55
2022/03/11 02:02:35;;;;;;;9.85;6.93;;;;;;;0.01;54.84;96775.53;5046686;28;20506;-50
2022/03/11 02:05:04;;;;;;;9.35;6.90;;;;;;;0.01;55.17;96783.28;5062826;28;20053;-51
2022/03/11 02:07:32;;;;;;;10.02;6.28;;;;;;;-0.09;55.85;96774.28;5051319;28;20114;-55
2022/03/11 02:10:00;;;;;;;12.10;6.78;;;;;;;-0.16;56.65;96771.13;5047477;28;20641;-55
2022/03/11 02:12:30;;;;;;;8.23;6.15;;;;;;;-0.17;57.20;96771.19;5046994;28;20076;-56
2022/03/11 02:15:00;;;;;;;12.38;8.00;;;;;;;-0.25;58.25;96769.78;5047555;28;20080;-55
2022/03/11 02:17:29;;;;;;;12.23;7.70;;;;;;;-0.21;58.33;96772.22;5047143;28;20076;-55
2022/03/11 02:19:57;;;;;;;8.68;7.07;;;;;;;-0.27;58.51;96770.78;5046889;28;20453;-52
2022/03/11 02:22:26;;;;;;;9.18;6.65;;;;;;;-0.31;58.92;96774.41;5046963;28;20068;-53
2022/03/11 02:24:56;;;;;;;10.52;7.38;;;;;;;-0.40;59.86;96775.69;5044881;28;20552;-51
2022/03/11 02:27:25;;;;;;;11.48;7.57;;;;;;;-0.32;60.75;96778.75;5046789;28;20526;-51
2022/03/11 02:29:53;;;;;;;11.68;7.55;;;;;;;-0.31;61.45;96777.88;5048134;28;20511;-53
2022/03/11 02:32:21;;;;;;;10.15;7.20;;;;;;;-0.37;61.82;96777.31;5043861;28;20076;-53
2022/03/11 02:34:49;;;;;;;9.57;6.97;;;;;;;-0.44;62.43;96773.31;5046780;28;20056;-53
2022/03/11 02:37:18;;;;;;;11.75;8.38;;;;;;;-0.53;62.69;96769.38;5046893;28;20068;-54
2022/03/11 02:39:46;;;;;;;11.38;7.57;;;;;;;-0.45;63.32;96772.44;5052186;28;20061;-55
2022/03/11 02:42:16;;;;;;;11.82;7.28;;;;;;;-0.40;63.34;96767.06;5052145;28;20064;-54
2022/03/11 02:44:44;;;;;;;8.97;6.70;;;;;;;-0.49;63.99;96773.50;5050544;28;20077;-50
2022/03/11 02:47:13;;;;;;;9.88;6.57;;;;;;;-0.54;64.38;96767.69;5047801;28;20083;-54
2022/03/11 02:49:41;;;;;;;12.15;6.90;;;;;;;-0.51;65.33;96762.38;5050803;28;20068;-57
2022/03/11 02:52:09;;;;;;;13.05;8.40;;;;;;;-0.52;65.67;96760.69;5051115;28;20064;-54
2022/03/11 02:54:37;;;;;;;11.80;7.53;;;;;;;-0.48;66.51;96757.06;5050504;28;20072;-50
2022/03/11 02:57:06;;;;;;;12.20;7.57;;;;;;;-0.56;66.94;96757.38;5052876;28;20083;-51
2022/03/11 02:59:35;;;;;;;11.82;8.10;;;;;;;-0.64;68.23;96763.84;5051262;28;20083;-56
2022/03/11 03:02:04;;;;;;;14.03;7.80;;;;;;;-0.72;69.30;96759.84;5050756;28;20068;-54
2022/03/11 03:04:33;;;;;;;11.88;7.13;;;;;;;-0.74;69.83;96750.47;5051039;28;20061;-53
2022/03/11 03:07:01;;;;;;;11.48;7.35;;;;;;;-0.66;70.61;96752.69;5054327;28;20052;-51
2022/03/11 03:09:29;;;;;;;10.40;7.55;;;;;;;-0.72;71.66;96743.47;5051729;28;20069;-55
2022/03/11 03:11:57;;;;;;;10.93;7.45;;;;;;;-0.76;71.82;96753.13;5031274;28;20328;-54
2022/03/11 03:14:26;;;;;;;16.60;8.73;;;;;;;-0.70;72.72;96745.97;5047206;28;20060;-55
2022/03/11 03:16:55;;;;;;;14.90;8.57;;;;;;;-0.76;72.96;96749.69;5046989;28;20053;-57
2022/03/11 03:19:24;;;;;;;9.48;7.80;;;;;;;-0.86;74.13;96745.81;5050740;28;20064;-51
2022/03/11 03:21:52;;;;;;;12.88;7.95;;;;;;;-0.89;74.74;96745.97;5050215;28;20638;-51
2022/03/11 03:24:20;;;;;;;12.70;7.93;;;;;;;-0.75;74.53;96741.84;5050848;28;20073;-55
2022/03/11 03:26:49;;;;;;;13.10;8.13;;;;;;;-0.80;75.73;96743.78;5050271;28;20450;-53
2022/03/11 03:29:17;;;;;;;9.10;7.50;;;;;;;-0.83;76.25;96746.50;5050325;28;20064;-55
2022/03/11 03:31:45;;;;;;;13.48;7.70;;;;;;;-0.78;75.85;96743.75;5049798;28;20462;-52
2022/03/11 03:34:15;;;;;;;9.95;7.00;;;;;;;-0.94;77.74;96745.31;5050659;28;20056;-57
2022/03/11 03:36:43;;;;;;;11.32;8.18;;;;;;;-0.94;78.37;96745.31;5051341;28;20088;-51
2022/03/11 03:39:12;;;;;;;13.27;8.82;;;;;;;-1.03;80.25;96751.75;5054693;28;20087;-53
2022/03/11 03:41:40;;;;;;;8.60;6.95;;;;;;;-1.15;82.51;96750.53;5049896;28;20071;-52
2022/03/11 03:44:08;;;;;;;13.52;7.85;;;;;;;-1.05;82.76;96746.63;5050293;28;20080;-52
2022/03/11 03:46:37;;;;;;;14.05;8.60;;;;;;;-1.08;83.35;96745.91;5049707;28;20068;-50
2022/03/11 03:49:05;;;;;;;11.70;9.05;;;;;;;-1.05;84.05;96744.03;5050453;28;20075;-52
2022/03/11 03:51:35;;;;;;;12.57;8.30;;;;;;;-1.08;85.15;96740.75;5049905;28;20461;-51
2022/03/11 03:54:03;;;;;;;16.27;10.13;;;;;;;-1.14;86.90;96738.41;5050480;28;20076;-54
2022/03/11 03:56:31;;;;;;;16.98;10.05;;;;;;;-1.15;87.87;96737.59;5049888;28;20575;-53
2022/03/11 03:59:04;;;;;;;20.77;11.45;;;;;;;-1.36;89.39;96734.16;5050586;28;20052;-53
2022/03/11 04:01:34;;;;;;;21.00;12.50;;;;;;;-1.26;91.34;96740.63;5049818;28;20083;-54
2022/03/11 04:04:04;;;;;;;18.80;12.03;;;;;;;-1.22;91.65;96737.00;5048692;28;20060;-53
2022/03/11 04:06:33;;;;;;;18.63;10.07;;;;;;;-1.35;93.10;96728.09;5050918;28;20549;-53
2022/03/11 04:09:06;;;;;;;18.63;10.35;;;;;;;-1.32;93.99;96724.53;5051188;28;20072;-53
2022/03/11 04:11:35;;;;;;;29.88;15.52;;;;;;;-1.29;95.18;96727.81;5050348;28;20083;-51
2022/03/11 04:14:04;;;;;;;44.40;19.73;;;;;;;-1.26;96.08;96729.44;5050348;28;20080;-57
2022/03/11 04:16:32;;;;;;;22.75;13.10;;;;;;;-1.36;96.79;96720.41;5049574;28;20099;-53
2022/03/11 04:19:01;;;;;;;16.95;10.88;;;;;;;-1.29;96.91;96727.81;5049315;28;20037;-52
2022/03/11 04:21:30;;;;;;;14.68;8.85;;;;;;;-1.25;96.81;96724.19;5050091;28;20053;-51
2022/03/11 04:23:58;;;;;;;12.90;8.10;;;;;;;-1.30;97.75;96723.56;5050838;28;20084;-59
2022/03/11 04:26:28;;;;;;;13.25;9.07;;;;;;;-1.34;98.56;96724.59;5050186;28;20056;-55
2022/03/11 04:28:56;;;;;;;14.00;8.70;;;;;;;-1.28;99.25;96723.47;5050738;28;20068;-49
2022/03/11 04:31:25;;;;;;;13.77;8.85;;;;;;;-1.32;100.00;96730.53;5049582;28;20075;-55
2022/03/11 04:33:55;;;;;;;14.18;9.30;;;;;;;-1.37;100.00;96729.91;5050476;28;21377;-57
2022/03/11 04:36:23;;;;;;;13.53;8.30;;;;;;;-1.41;100.00;96730.94;5050588;28;20451;-52
2022/03/11 04:38:52;;;;;;;11.25;8.10;;;;;;;-1.48;100.00;96732.94;5046484;28;20478;-50
2022/03/11 04:41:20;;;;;;;14.77;10.45;;;;;;;-1.51;100.00;96724.47;5042268;28;20067;-55
2022/03/11 04:43:50;;;;;;;12.20;8.70;;;;;;;-1.42;100.00;96731.00;5047744;28;20068;-52
2022/03/11 04:46:18;;;;;;;18.65;9.75;;;;;;;-1.51;100.00;96720.16;5047715;28;20101;-52
2022/03/11 04:48:47;;;;;;;16.83;8.80;;;;;;;-1.56;100.00;96714.31;5047836;28;20071;-58
2022/03/11 04:51:15;;;;;;;13.57;9.90;;;;;;;-1.60;100.00;96709.34;5051262;28;20159;-54
2022/03/11 04:53:44;;;;;;;15.70;10.65;;;;;;;-1.56;100.00;96713.47;5052165;28;20060;-54
2022/03/11 04:56:12;;;;;;;13.43;9.35;;;;;;;-1.55;100.00;96713.44;5047459;28;20071;-52
2022/03/11 04:58:40;;;;;;;15.48;10.77;;;;;;;-1.62;100.00;96706.81;5048569;28;20057;-54
2022/03/11 05:01:10;;;;;;;11.07;8.07;;;;;;;-1.60;100.00;96702.44;5047711;28;20065;-51
2022/03/11 05:03:38;;;;;;;15.82;9.00;;;;;;;-1.70;100.00;96707.13;5048656;28;20083;-57
2022/03/11 05:06:11;;;;;;;12.40;8.57;;;;;;;-1.72;100.00;96702.91;5049008;28;20095;-53
2022/03/11 05:08:39;;;;;;;14.40;8.93;;;;;;;-1.62;100.00;96701.63;5048800;28;20065;-53
2022/03/11 05:11:07;;;;;;;11.80;8.20;;;;;;;-1.74;100.00;96703.00;5048008;28;20080;-55
2022/03/11 05:13:36;;;;;;;17.58;9.50;;;;;;;-1.75;100.00;96682.41;5048401;28;20431;-56
2022/03/11 05:16:05;;;;;;;14.10;9.75;;;;;;;-1.72;100.00;96697.75;5048051;28;20447;-54
2022/03/11 05:18:35;;;;;;;13.82;9.20;;;;;;;-1.67;100.00;96695.84;5047473;28;20084;-57
2022/03/11 05:21:03;;;;;;;14.90;10.15;;;;;;;-1.61;100.00;96698.16;5046253;28;20072;-51
2022/03/11 05:23:31;;;;;;;14.15;9.60;;;;;;;-1.66;100.00;96697.50;5048363;28;20070;-55
2022/03/11 05:26:00;;;;;;;22.13;9.70;;;;;;;-1.69;100.00;96692.47;5048058;28;20079;-61
2022/03/11 05:28:28;;;;;;;15.27;10.63;;;;;;;-1.74;100.00;96697.00;5048103;28;20444;-60
2022/03/11 05:30:56;;;;;;;13.95;9.35;;;;;;;-1.75;100.00;96701.31;5046977;28;20064;-61
2022/03/11 05:33:25;;;;;;;16.88;10.25;;;;;;;-1.66;100.00;96700.09;5047298;28;20072;-58
2022/03/11 05:35:54;;;;;;;15.52;9.98;;;;;;;-1.83;100.00;96705.13;5049395;28;20083;-56
2022/03/11 05:38:23;;;;;;;13.85;9.52;;;;;;;-1.72;100.00;96706.38;5044949;28;20060;-59
2022/03/11 05:40:51;;;;;;;13.32;9.18;;;;;;;-1.70;100.00;96704.56;5045481;28;20071;-57
2022/03/11 05:43:19;;;;;;;19.30;10.73;;;;;;;-1.75;100.00;96708.25;5049266;28;20099;-55
2022/03/11 05:45:47;;;;;;;16.13;9.88;;;;;;;-1.82;100.00;96702.50;5048850;28;20076;-52
2022/03/11 05:48:16;;;;;;;16.60;11.82;;;;;;;-1.82;100.00;96701.66;5048909;28;20087;-58
2022/03/11 05:50:44;;;;;;;12.38;8.80;;;;;;;-1.72;100.00;96700.34;5048566;28;20079;-55
2022/03/11 05:53:15;;;;;;;15.75;10.20;;;;;;;-1.70;100.00;96699.38;5048788;28;20069;-56
2022/03/11 05:55:43;;;;;;;17.38;9.80;;;;;;;-1.62;100.00;96704.22;5048094;28;20064;-53
2022/03/11 05:58:11;;;;;;;17.50;9.68;;;;;;;-1.64;100.00;96712.97;5048818;28;20072;-52
2022/03/11 06:00:39;;;;;;;14.77;8.43;;;;;;;-1.65;100.00;96709.56;5048486;28;20088;-53
2022/03/11 06:03:08;;;;;;;17.23;10.55;;;;;;;-1.50;100.00;96710.63;5049089;28;20699;-60
2022/03/11 06:05:36;;;;;;;15.85;10.75;;;;;;;-1.48;100.00;96709.69;5049332;28;20589;-58
2022/03/11 06:08:05;;;;;;;15.45;9.18;;;;;;;-1.49;100.00;96713.16;5051261;28;20068;-56
2022/03/11 06:10:35;;;;;;;17.10;8.25;;;;;;;-1.48;100.00;96711.41;5047709;28;20069;-57
2022/03/11 06:13:03;;;;;;;14.50;10.13;;;;;;;-1.28;100.00;96718.31;5047676;28;20065;-53
2022/03/11 06:15:31;;;;;;;14.95;8.27;;;;;;;-1.25;100.00;96713.84;5048007;28;20753;-60
2022/03/11 06:18:00;;;;;;;16.25;10.23;;;;;;;-1.36;100.00;96716.06;5048824;28;20084;-56
2022/03/11 06:20:30;;;;;;;17.08;10.27;;;;;;;-1.16;100.00;96729.91;5047419;28;20649;-56
2022/03/11 06:22:59;;;;;;;16.67;10.43;;;;;;;-1.10;100.00;96721.84;5048573;28;20456;-57
2022/03/11 06:25:27;;;;;;;17.77;10.32;;;;;;;-1.01;100.00;96726.63;5048446;28;20068;-57
2022/03/11 06:27:57;;;;;;;14.50;9.55;;;;;;;-1.11;100.00;96725.34;5048309;28;20057;-58
2022/03/11 06:30:30;;;;;;;18.38;11.15;;;;;;;-0.99;100.00;96725.66;5046610;28;20100;-56
2022/03/11 06:32:58;;;;;;;13.52;9.07;;;;;;;-0.91;100.00;96725.31;5048497;28;20076;-59
2022/03/11 06:35:26;;;;;;;16.35;11.60;;;;;;;-1.01;100.00;96732.63;5048008;28;20076;-58
2022/03/11 06:37:55;;;;;;;16.58;10.38;;;;;;;-0.81;100.00;96736.94;5047997;28;20472;-58
2022/03/11 06:40:23;;;;;;;18.13;10.20;;;;;;;-0.77;100.00;96738.47;5047866;28;20069;-53
2022/03/11 06:42:53;;;;;;;20.75;12.57;;;;;;;-0.62;100.00;96743.88;5048170;28;20102;-57
2022/03/11 06:45:23;;;;;;;17.92;11.00;;;;;;;-0.47;100.00;96747.53;5045360;28;20084;-53
2022/03/11 06:47:51;;;;;;;26.60;9.88;;;;;;;-0.41;100.00;96752.41;5041575;28;20546;-54
2022/03/11 06:50:20;;;;;;;19.88;10.63;;;;;;;-0.24;100.00;96747.31;5047805;28;20064;-56
2022/03/11 06:52:48;;;;;;;16.90;10.75;;;;;;;-0.14;100.00;96751.13;5047985;28;20103;-59
2022/03/11 06:55:17;;;;;;;13.52;8.63;;;;;;;-0.17;100.00;96740.94;5047595;28;20076;-55
2022/03/11 06:57:45;;;;;;;20.13;12.82;;;;;;;-0.18;100.00;96748.78;5047920;28;20155;-59
2022/03/11 07:00:15;;;;;;;17.55;12.05;;;;;;;-0.28;100.00;96753.53;5043467;28;20552;-57
2022/03/11 07:02:44;;;;;;;18.77;9.55;;;;;;;-0.09;100.00;96748.34;5048262;28;20069;-59
2022/03/11 07:05:13;;;;;;;14.63;9.23;;;;;;;0.01;100.00;96743.56;5047678;28;20065;-51
2022/03/11 07:07:41;;;;;;;19.73;11.10;;;;;;;0.23;100.00;96747.63;5050708;28;20064;-55
2022/03/11 07:10:16;;;;;;;16.23;9.75;;;;;;;0.11;100.00;96760.38;5048690;28;20063;-56
2022/03/11 07:12:44;;;;;;;19.00;11.88;;;;;;;0.12;100.00;96749.91;5048314;28;26497;-53
2022/03/11 07:15:13;;;;;;;16.67;9.98;;;;;;;0.08;100.00;96761.34;5048941;28;20507;-60
2022/03/11 07:17:41;;;;;;;14.18;10.48;;;;;;;0.38;100.00;96756.44;5047753;28;20091;-58
2022/03/11 07:20:11;;;;;;;15.32;10.63;;;;;;;0.39;100.00;96760.72;5048300;28;20076;-60
2022/03/11 07:22:40;;;;;;;15.88;10.45;;;;;;;0.36;100.00;96767.81;5047992;28;20075;-52
2022/03/11 07:25:09;;;;;;;19.33;11.63;;;;;;;0.65;100.00;96761.16;5049681;28;20454;-59
2022/03/11 07:27:37;;;;;;;18.30;12.02;;;;;;;0.74;100.00;96759.88;5051786;28;20475;-60
2022/03/11 07:30:09;;;;;;;14.52;10.02;;;;;;;0.94;99.61;96760.53;5052010;28;20534;-56
2022/03/11 07:32:37;;;;;;;15.73;11.07;;;;;;;0.88;99.43;96758.25;5051606;28;20084;-55
2022/03/11 07:35:08;;;;;;;14.40;10.48;;;;;;;0.68;98.28;96750.63;5051656;28;20072;-57
2022/03/11 07:37:39;;;;;;;16.42;9.70;;;;;;;0.81;98.68;96748.28;5057189;28;20072;-59
2022/03/11 07:40:08;;;;;;;14.05;9.45;;;;;;;1.15;97.11;96755.16;5049574;28;20091;-51
2022/03/11 07:42:36;;;;;;;15.82;10.88;;;;;;;1.34;95.95;96762.81;5051334;28;20483;-58
2022/03/11 07:45:07;;;;;;;18.33;12.30;;;;;;;1.19;94.10;96757.53;5051810;28;20474;-60
2022/03/11 07:47:35;;;;;;;15.40;10.82;;;;;;;1.25;92.85;96764.16;5051254;28;20537;-53
2022/03/11 07:50:04;;;;;;;18.75;10.60;;;;;;;1.66;90.61;96754.19;5051104;28;20080;-55
2022/03/11 07:52:33;;;;;;;18.38;12.50;;;;;;;1.61;88.83;96758.75;5050628;28;20079;-57
2022/03/11 07:55:02;;;;;;;20.70;13.20;;;;;;;1.66;88.93;96755.94;5050361;28;20056;-58
2022/03/11 07:57:32;;;;;;;17.13;10.48;;;;;;;1.79;89.40;96763.88;5050741;28;20077;-52
2022/03/11 08:00:01;;;;;;;15.30;10.05;;;;;;;1.86;88.25;96755.69;5046231;28;20077;-56
2022/03/11 08:02:29;;;;;;;21.30;11.98;;;;;;;1.81;86.34;96762.91;5047848;28;20068;-56
2022/03/11 08:04:58;;;;;;;16.13;11.27;;;;;;;2.21;83.32;96755.50;5044080;28;20083;-61
2022/03/11 08:07:26;;;;;;;18.58;12.30;;;;;;;1.89;84.20;96757.25;5053215;28;20172;-59
2022/03/11 08:09:55;;;;;;;11.70;8.68;;;;;;;2.31;80.87;96754.06;5050184;28;20120;-59
2022/03/11 08:12:25;;;;;;;20.42;12.30;;;;;;;2.36;81.59;96746.81;5050745;28;20470;-54
2022/03/11 08:14:53;;;;;;;18.02;11.38;;;;;;;2.27;81.04;96746.50;5050181;28;20444;-57
2022/03/11 08:17:23;;;;;;;17.70;11.02;;;;;;;2.34;80.80;96743.47;5050977;28;20072;-59
2022/03/11 08:19:51;;;;;;;17.38;11.48;;;;;;;2.61;78.42;96733.25;5050122;28;20072;-50
2022/03/11 08:22:19;;;;;;;13.50;9.38;;;;;;;2.84;76.61;96728.44;5050382;28;20064;-56
2022/03/11 08:24:48;;;;;;;17.38;11.65;;;;;;;3.11;74.54;96733.78;5050130;28;20068;-59
2022/03/11 08:27:17;;;;;;;21.15;12.02;;;;;;;3.12;73.79;96732.84;5051194;28;20460;-52
2022/03/11 08:29:47;;;;;;;14.10;9.60;;;;;;;2.89;74.60;96733.38;5050502;28;20094;-54
2022/03/11 08:32:15;;;;;;;16.58;11.38;;;;;;;2.91;73.79;96731.53;5049871;28;20064;-57
2022/03/11 08:34:43;;;;;;;20.63;11.07;;;;;;;3.35;71.69;96733.25;5050115;28;20080;-58
2022/03/11 08:37:25;;;;;;;13.13;9.90;;;;;;;3.11;69.82;96728.56;5051675;28;20065;-54
2022/03/11 08:39:53;;;;;;;15.18;9.60;;;;;;;3.73;69.59;96733.47;5049472;28;20479;-55
2022/03/11 08:42:22;;;;;;;16.60;9.10;;;;;;;3.31;69.37;96711.75;5050539;28;20084;-59
2022/03/11 08:44:52;;;;;;;20.52;10.95;;;;;;;3.84;67.45;96718.00;5049507;28;20520;-58
2022/03/11 08:47:20;;;;;;;13.17;8.83;;;;;;;3.65;67.14;96726.16;5050236;28;20057;-57
2022/03/11 08:49:48;;;;;;;18.58;11.05;;;;;;;4.01;66.47;96724.75;5050043;28;20071;-61
2022/03/11 08:52:16;;;;;;;18.25;11.93;;;;;;;3.57;65.50;96725.75;5049764;28;20069;-59
2022/03/11 08:54:45;;;;;;;17.23;11.98;;;;;;;3.84;65.28;96722.38;5050021;28;20098;-61
2022/03/11 08:57:13;;;;;;;20.80;10.88;;;;;;;3.87;63.97;96717.78;5048884;28;20076;-60
2022/03/11 08:59:41;;;;;;;15.73;10.40;;;;;;;3.69;64.66;96724.19;5048002;28;20076;-58
2022/03/11 09:02:13;;;;;;;19.48;11.50;;;;;;;4.07;63.40;96715.72;5049713;28;20091;-55
2022/03/11 09:04:46;;;;;;;16.15;10.63;;;;;;;3.84;63.94;96715.38;5049430;28;20079;-56
2022/03/11 09:07:15;;;;;;;15.52;9.93;;;;;;;3.87;63.12;96717.78;5051302;28;20614;-54
2022/03/11 09:09:43;;;;;;;19.35;11.15;;;;;;;4.28;61.87;96711.69;5049557;28;20076;-52
2022/03/11 09:12:11;;;;;;;21.08;12.80;;;;;;;4.30;61.38;96715.03;5050292;28;20088;-56
2022/03/11 09:14:39;;;;;;;17.80;10.68;;;;;;;4.53;59.70;96709.16;5049085;28;20136;-54
2022/03/11 09:17:08;;;;;;;16.08;9.93;;;;;;;4.43;60.19;96697.63;5049348;28;20075;-56
2022/03/11 09:19:38;;;;;;;17.65;10.32;;;;;;;4.41;59.83;96696.91;5049251;28;20076;-57
2022/03/11 09:22:27;;;;;;;16.48;10.77;;;;;;;4.71;59.82;96691.44;5049059;28;20066;-54
2022/03/11 09:24:55;;;;;;;21.02;11.63;;;;;;;4.63;59.57;96700.72;5049198;28;20083;-58
2022/03/11 09:27:23;;;;;;;16.20;11.52;;;;;;;4.39;58.40;96708.38;5050104;28;20095;-56
2022/03/11 09:29:52;;;;;;;16.40;10.27;;;;;;;4.50;57.74;96695.44;5029401;28;20453;-59
2022/03/11 09:32:20;;;;;;;19.08;12.13;;;;;;;4.92;57.07;96707.44;5045039;28;20077;-60
2022/03/11 09:34:50;;;;;;;15.80;10.82;;;;;;;4.62;57.45;96701.66;5048659;28;20077;-59
2022/03/11 09:37:18;;;;;;;16.27;10.55;;;;;;;4.85;56.03;96698.34;5054053;28;20064;-59
2022/03/11 09:39:47;;;;;;;21.80;12.25;;;;;;;4.74;55.25;96706.03;5049004;28;20068;-57
2022/03/11 09:42:15;;;;;;;20.25;11.13;;;;;;;5.01;55.26;96711.19;5049734;28;20088;-57
2022/03/11 09:44:50;;;;;;;20.98;11.52;;;;;;;5.41;53.48;96701.47;5049063;28;20065;-56
2022/03/11 09:47:19;;;;;;;12.60;8.75;;;;;;;4.86;53.68;96699.19;5049098;28;20068;-59
2022/03/11 09:49:47;;;;;;;17.50;10.40;;;;;;;5.12;54.18;96698.22;5048969;28;20091;-58
2022/03/11 09:52:19;;;;;;;19.77;13.50;;;;;;;5.00;53.25;96694.69;5046875;28;20462;-55
2022/03/11 09:54:48;;;;;;;15.90;9.20;;;;;;;5.08;53.52;96691.53;5047879;28;20064;-56
2022/03/11 09:57:18;;;;;;;20.25;12.18;;;;;;;5.19;52.78;96690.78;5049129;28;20095;-61
2022/03/11 09:59:46;;;;;;;19.75;12.05;;;;;;;5.37;53.56;96693.94;5048629;28;20076;-56
2022/03/11 10:02:25;;;;;;;14.98;9.60;;;;;;;5.41;53.11;96683.16;5048927;28;20068;-59
2022/03/11 10:04:56;;;;;;;20.58;11.80;;;;;;;5.46;52.28;96686.25;5046693;28;20135;-60
2022/03/11 10:07:46;;;;;;;16.30;10.73;;;;;;;5.57;51.43;96687.28;5049154;28;20065;-60
2022/03/11 10:10:17;;;;;;;17.00;12.35;;;;;;;5.63;51.57;96692.09;5048624;28;20071;-58
2022/03/11 10:13:08;;;;;;;15.70;10.35;;;;;;;5.91;50.50;96685.72;5048909;28;20507;-59
2022/03/11 10:15:37;;;;;;;17.80;11.65;;;;;;;6.23;50.12;96682.59;5048593;28;20088;-57
2022/03/11 10:18:08;;;;;;;15.45;10.95;;;;;;;6.09;49.96;96678.34;5049173;28;20088;-57
2022/03/11 10:20:37;;;;;;;18.30;11.73;;;;;;;5.99;50.14;96687.81;5048512;28;20069;-60
2022/03/11 10:23:11;;;;;;;20.58;11.80;;;;;;;5.89;50.38;96696.31;5048573;28;20072;-58
2022/03/11 10:25:39;;;;;;;16.02;11.35;;;;;;;6.05;50.11;96684.75;5048755;28;20083;-57
2022/03/11 10:28:09;;;;;;;16.30;11.55;;;;;;;6.07;49.80;96686.34;5048780;28;20102;-55
2022/03/11 10:30:39;;;;;;;16.33;10.13;;;;;;;5.79;49.99;96691.84;5048591;28;20115;-59
2022/03/11 10:33:08;;;;;;;15.52;10.52;;;;;;;5.97;48.83;96690.56;5048795;28;20092;-56
2022/03/11 10:35:38;;;;;;;20.10;12.75;;;;;;;6.43;48.77;96700.28;5049072;28;20076;-59
2022/03/11 10:38:10;;;;;;;19.50;12.98;;;;;;;6.15;49.23;96693.63;5052508;28;20608;-58
2022/03/11 10:40:42;;;;;;;16.13;11.52;;;;;;;6.30;49.43;96691.69;5048154;28;20068;-57
2022/03/11 10:43:12;;;;;;;18.33;10.90;;;;;;;6.69;49.03;96687.88;5048607;28;20052;-57
2022/03/11 10:45:48;;;;;;;13.27;9.35;;;;;;;6.30;47.93;96671.56;5046589;28;20502;-56
2022/03/11 10:48:18;;;;;;;17.02;12.40;;;;;;;6.73;48.15;96670.97;5042165;28;20081;-56
2022/03/11 10:50:46;;;;;;;18.25;13.05;;;;;;;7.02;47.00;96678.41;5047523;28;20080;-60
2022/03/11 10:53:16;;;;;;;15.93;11.52;;;;;;;6.58;46.92;96672.97;5047562;28;20100;-55
2022/03/11 10:55:44;;;;;;;18.60;10.90;;;;;;;6.74;47.65;96670.00;5063385;28;20061;-60
2022/03/11 10:58:16;;;;;;;20.08;11.13;;;;;;;6.50;46.62;96669.25;5048114;28;20057;-56
2022/03/11 11:00:45;;;;;;;15.77;10.52;;;;;;;6.66;46.35;96675.00;5050581;28;20091;-57
2022/03/11 11:03:14;;;;;;;19.15;9.63;;;;;;;6.89;45.71;96676.72;5052447;28;20508;-55
2022/03/11 11:05:43;;;;;;;11.73;8.35;;;;;;;6.59;45.38;96665.94;5051952;28;20061;-58
2022/03/11 11:08:11;;;;;;;16.10;10.50;;;;;;;6.75;45.85;96671.72;5051841;28;20064;-60
2022/03/11 11:10:41;;;;;;;17.98;12.90;;;;;;;6.61;45.22;96664.06;5052261;28;20067;-59
2022/03/11 11:13:10;;;;;;;16.27;8.93;;;;;;;6.71;45.55;96675.53;5051804;28;20064;-55
2022/03/11 11:15:39;;;;;;;14.93;11.13;;;;;;;7.49;45.66;96659.00;5048016;28;20466;-60
2022/03/11 11:18:13;;;;;;;17.90;12.50;;;;;;;7.11;44.86;96660.19;5052765;28;20068;-62
2022/03/11 11:20:47;;;;;;;16.45;11.05;;;;;;;7.03;44.40;96651.25;5049116;28;20053;-59
2022/03/11 11:23:16;;;;;;;19.85;12.65;;;;;;;7.57;44.23;96653.13;5052012;28;20616;-59
2022/03/11 11:25:46;;;;;;;15.18;11.40;;;;;;;7.07;44.17;96655.31;5051581;28;20115;-58
2022/03/11 11:28:16;;;;;;;19.00;11.70;;;;;;;7.35;44.74;96652.19;5051907;28;20093;-60
2022/03/11 11:30:44;;;;;;;;;;;;;;;7.38;44.21;96644.09;5050689;28;20072;-53
2022/03/11 11:33:13;;;;;;;19.08;10.52;;;;;;;7.45;43.93;96643.63;5052079;28;20379;-57
2022/03/11 11:35:43;;;;;;;14.25;9.25;;;;;;;7.56;43.90;96622.59;5052341;28;20075;-57